Time;durP1;ratioP1;P1;durP2;ratioP2;P2;SDS_P1;SDS_P2;PMS_P1;PMS_P2;Temp;Humidity;BMP_temperature;BMP_pressure;BME280_temperature;BME280_humidity;BME280_pressure;Samples;Min_cycle;Max_cycle;Signal;HPM_P1;HPM_P2
2023/01/25 00:06:17;;;;;;;77.90;31.10;;;;;;;-1.68;100.00;101968.84;104851;1290;600838;-91
2023/01/25 00:08:51;;;;;;;69.60;30.00;;;;;;;0.51;100.00;101964.05;107248;1267;62109;-90
2023/01/25 00:11:20;;;;;;;75.40;31.70;;;;;;;1.33;100.00;101959.89;107257;1267;61371;-90
2023/01/25 00:13:48;;;;;;;64.00;27.50;;;;;;;1.73;100.00;101960.91;107278;1267;73467;-90
2023/01/25 00:16:16;;;;;;;77.30;32.90;;;;;;;1.94;100.00;101954.21;107279;1267;71350;-90
2023/01/25 00:18:44;;;;;;;67.70;29.30;;;;;;;2.34;100.00;101953.02;107762;1260;72833;-91
2023/01/25 00:21:14;;;;;;;76.30;30.20;;;;;;;2.59;100.00;101953.81;107695;1257;60014;-89
2023/01/25 00:23:42;;;;;;;65.40;28.80;;;;;;;2.70;100.00;101944.75;107968;1257;59063;-90
2023/01/25 00:26:10;;;;;;;69.70;30.40;;;;;;;2.70;100.00;101943.88;107951;1256;71126;-90
2023/01/25 00:28:39;;;;;;;63.90;26.90;;;;;;;2.82;100.00;101939.81;108022;1258;68450;-91
2023/01/25 00:31:15;;;;;;;60.60;27.70;;;;;;;3.02;100.00;101940.64;107888;1257;71861;-90
2023/01/25 00:34:00;;;;;;;57.40;25.90;;;;;;;3.25;100.00;101934.02;107857;1257;61935;-90
2023/01/25 00:36:36;;;;;;;59.40;25.80;;;;;;;3.37;100.00;101937.58;107963;1260;60705;-90
2023/01/25 00:39:12;;;;;;;52.80;23.50;;;;;;;3.45;100.00;101938.11;107921;1257;74217;-90
2023/01/25 00:41:40;;;;;;;48.60;23.90;;;;;;;3.57;100.00;101934.02;107961;1260;69817;-89
2023/01/25 00:44:10;;;;;;;62.90;27.60;;;;;;;3.46;100.00;101932.58;108255;1256;72692;-90
2023/01/25 00:46:38;;;;;;;54.80;26.50;;;;;;;3.70;100.00;101926.98;108220;1254;62142;-90
2023/01/25 00:49:30;;;;;;;62.90;25.90;;;;;;;3.79;100.00;101924.04;108048;1255;59770;-91
2023/01/25 00:51:58;;;;;;;48.70;22.60;;;;;;;4.08;100.00;101926.31;108194;1258;73678;-90
2023/01/25 00:54:28;;;;;;;62.20;27.20;;;;;;;4.14;100.00;101925.91;108049;1254;70962;-89
2023/01/25 00:56:57;;;;;;;59.40;26.60;;;;;;;4.26;100.00;101924.04;108010;1254;73620;-89
2023/01/25 00:59:26;;;;;;;63.00;26.60;;;;;;;4.22;100.00;101923.45;108158;1254;60977;-91
2023/01/25 01:01:54;;;;;;;53.80;25.10;;;;;;;4.34;100.00;101918.27;108092;1260;60032;-89
2023/01/25 01:04:25;;;;;;;52.60;24.10;;;;;;;4.40;100.00;101917.14;108017;1255;73140;-91
2023/01/25 01:06:54;;;;;;;55.70;24.30;;;;;;;4.35;100.00;101922.27;108011;1254;69149;-88
2023/01/25 01:09:22;;;;;;;50.70;24.60;;;;;;;4.24;100.00;101921.38;108164;1253;72832;-90
2023/01/25 01:11:53;;;;;;;48.50;24.30;;;;;;;4.15;100.00;101916.20;108258;1255;59973;-88
2023/01/25 01:14:21;;;;;;;50.10;21.80;;;;;;;4.16;100.00;101917.59;108124;1254;61326;-90
2023/01/25 01:16:53;;;;;;;44.40;22.10;;;;;;;4.22;100.00;101921.88;108104;1254;74247;-90
2023/01/25 01:19:29;;;;;;;53.80;25.40;;;;;;;4.16;100.00;101920.03;107797;1262;69371;-90
2023/01/25 01:21:57;;;;;;;55.70;22.80;;;;;;;4.07;100.00;101920.05;107875;1255;73908;-90
2023/01/25 01:24:29;;;;;;;47.40;21.60;;;;;;;4.23;100.00;101923.98;108045;1257;61087;-89
2023/01/25 01:26:58;;;;;;;48.30;21.40;;;;;;;4.19;100.00;101924.44;107987;1257;60561;-89
2023/01/25 01:29:28;;;;;;;50.10;22.50;;;;;;;4.14;100.00;101924.33;108013;1257;72965;-90
2023/01/25 01:31:57;;;;;;;48.00;22.20;;;;;;;4.20;100.00;101922.88;108027;1261;70461;-89
2023/01/25 01:34:28;;;;;;;52.70;23.60;;;;;;;4.25;100.00;101922.10;108184;1258;72653;-88
2023/01/25 01:36:57;;;;;;;45.40;23.10;;;;;;;4.18;100.00;101921.11;109135;1256;62080;-90
2023/01/25 01:39:26;;;;;;;53.50;24.10;;;;;;;4.13;100.00;101918.42;109270;1256;60158;-89
2023/01/25 01:41:57;;;;;;;58.50;24.00;;;;;;;4.24;100.00;101918.96;109417;1257;72986;-90
2023/01/25 01:44:46;;;;;;;51.20;23.60;;;;;;;4.38;100.00;101916.06;109239;1256;69162;-90
2023/01/25 01:47:21;;;;;;;49.80;22.80;;;;;;;4.72;90.72;101912.10;109408;1257;72507;-89
2023/01/25 01:49:53;;;;;;;44.20;20.00;;;;;;;4.97;83.12;101909.50;108991;1254;60320;-90
2023/01/25 01:52:26;;;;;;;44.10;21.80;;;;;;;4.86;74.94;101910.92;108100;1254;61230;-91
2023/01/25 01:55:07;;;;;;;46.40;21.70;;;;;;;4.65;74.20;101907.98;108926;1254;72093;-90
2023/01/25 01:57:45;;;;;;;43.50;21.60;;;;;;;4.52;73.66;101904.30;109303;1254;68774;-89
2023/01/25 02:00:16;;;;;;;47.50;21.10;;;;;;;4.71;73.07;101907.03;108550;1254;71817;-88
2023/01/25 02:02:45;;;;;;;53.00;23.50;;;;;;;4.63;73.39;101906.20;108075;1254;60527;-90
2023/01/25 02:05:18;;;;;;;49.50;23.60;;;;;;;4.57;73.62;101904.73;108041;1254;59599;-90
2023/01/25 02:07:48;;;;;;;43.70;21.30;;;;;;;4.71;73.02;101903.02;108011;1254;71479;-90
2023/01/25 02:10:19;;;;;;;51.90;24.00;;;;;;;4.67;72.73;101898.27;108144;1254;68873;-90
2023/01/25 02:12:47;;;;;;;43.40;22.10;;;;;;;4.79;72.29;101898.46;108394;1254;73583;-90
2023/01/25 02:15:18;;;;;;;47.20;22.20;;;;;;;4.95;72.09;101886.33;108764;1257;60823;-89
2023/01/25 02:17:47;;;;;;;54.20;22.90;;;;;;;5.04;71.38;101880.35;108853;1254;60026;-89
2023/01/25 02:20:25;;;;;;;53.00;22.50;;;;;;;4.62;71.98;101881.14;109010;1254;71916;-89
2023/01/25 02:23:17;;;;;;;51.00;22.80;;;;;;;5.14;70.91;101875.79;108783;1254;71289;-88
2023/01/25 02:25:46;;;;;;;52.90;25.90;;;;;;;5.26;70.17;101876.31;108652;1254;72015;-87
2023/01/25 02:28:15;;;;;;;48.40;24.80;;;;;;;5.15;70.26;101879.29;108449;1254;61107;-88
2023/01/25 02:30:44;;;;;;;46.80;22.30;;;;;;;5.30;69.31;101875.66;108110;1254;61378;-91
2023/01/25 02:33:12;;;;;;;49.00;24.30;;;;;;;5.49;68.76;101875.73;108009;1254;73318;-90
2023/01/25 02:35:50;;;;;;;44.50;21.30;;;;;;;5.45;68.45;101877.23;108061;1254;71517;-90
2023/01/25 02:38:20;;;;;;;47.70;21.90;;;;;;;5.08;69.21;101882.34;108302;1254;73640;-91
2023/01/25 02:40:55;;;;;;;56.40;25.40;;;;;;;4.96;69.85;101876.07;108143;1254;61987;-89
2023/01/25 02:43:28;;;;;;;57.30;24.10;;;;;;;4.93;69.58;101870.80;108574;1254;60326;-88
2023/01/25 02:46:01;;;;;;;47.50;22.00;;;;;;;5.17;68.92;101878.63;108223;1254;74115;-90
2023/01/25 02:48:30;;;;;;;53.00;24.20;;;;;;;5.07;68.81;101881.09;108066;1254;69086;-91
2023/01/25 02:50:58;;;;;;;45.70;22.10;;;;;;;4.80;69.61;101879.85;108119;1255;72497;-92
2023/01/25 02:53:28;;;;;;;50.60;24.60;;;;;;;5.00;69.17;101882.40;108160;1259;61733;-90
2023/01/25 02:55:56;;;;;;;50.40;24.10;;;;;;;5.02;68.56;101880.34;108214;1254;59731;-92
2023/01/25 02:58:24;;;;;;;52.10;23.70;;;;;;;5.15;68.14;101873.90;108103;1254;72695;-90
2023/01/25 03:00:52;;;;;;;45.40;23.40;;;;;;;5.12;68.24;101875.25;108244;1254;68634;-91
2023/01/25 03:03:20;;;;;;;40.70;19.40;;;;;;;5.08;68.08;101873.80;108337;1256;72706;-90
2023/01/25 03:05:48;;;;;;;46.10;22.90;;;;;;;5.09;67.93;101868.77;108254;1260;61591;-89
2023/01/25 03:08:16;;;;;;;57.10;26.60;;;;;;;5.00;68.21;101871.08;108121;1254;61037;-89
2023/01/25 03:10:46;;;;;;;47.70;24.60;;;;;;;5.12;67.62;101868.80;108192;1254;73884;-90
2023/01/25 03:13:15;;;;;;;58.60;28.00;;;;;;;5.05;67.33;101867.15;108053;1254;71134;-90
2023/01/25 03:15:43;;;;;;;53.30;26.80;;;;;;;5.07;66.42;101868.56;108209;1254;72127;-90
2023/01/25 03:18:11;;;;;;;59.10;26.20;;;;;;;5.30;65.44;101867.30;108060;1254;61916;-89
2023/01/25 03:20:40;;;;;;;55.80;27.60;;;;;;;5.41;64.66;101869.34;108157;1254;60168;-91
2023/01/25 03:23:08;;;;;;;51.20;24.60;;;;;;;5.52;64.36;101873.83;108112;1254;71299;-90
2023/01/25 03:25:39;;;;;;;50.50;24.00;;;;;;;5.50;64.06;101879.21;107987;1254;71547;-90
2023/01/25 03:28:11;;;;;;;51.50;24.30;;;;;;;5.62;63.40;101885.97;108036;1254;70606;-91
2023/01/25 03:30:40;;;;;;;45.80;22.80;;;;;;;5.56;63.51;101886.43;107946;1256;62323;-91
2023/01/25 03:33:08;;;;;;;55.50;27.00;;;;;;;5.56;63.65;101883.29;107833;1254;61255;-88
2023/01/25 03:35:37;;;;;;;48.60;23.90;;;;;;;5.73;62.48;101881.73;108173;1254;74020;-88
2023/01/25 03:38:13;;;;;;;46.00;23.30;;;;;;;5.51;63.05;101876.43;108070;1254;71242;-89
2023/01/25 03:40:41;;;;;;;46.50;22.80;;;;;;;5.39;63.25;101878.73;108362;1254;72885;-90
2023/01/25 03:43:10;;;;;;;46.00;20.80;;;;;;;5.41;63.22;101880.48;108322;1254;60020;-88
2023/01/25 03:45:38;;;;;;;47.80;23.10;;;;;;;5.21;63.46;101879.73;109042;1254;59535;-89
2023/01/25 03:48:06;;;;;;;49.80;23.20;;;;;;;5.13;63.05;101886.59;109323;1253;72640;-88
2023/01/25 03:50:35;;;;;;;40.70;21.10;;;;;;;5.01;63.07;101887.81;109468;1254;70598;-89
2023/01/25 03:53:34;;;;;;;43.00;21.60;;;;;;;5.07;62.86;101889.10;108232;1254;72922;-89
2023/01/25 03:56:08;;;;;;;40.30;19.90;;;;;;;4.88;63.17;101888.83;108056;1260;60838;-89
2023/01/25 03:58:37;;;;;;;36.00;19.10;;;;;;;5.14;63.06;101889.02;108292;1253;59152;-90
2023/01/25 04:01:06;;;;;;;44.10;20.50;;;;;;;5.06;63.26;101889.96;108200;1254;72827;-91
2023/01/25 04:03:35;;;;;;;32.90;18.00;;;;;;;5.06;62.74;101887.35;108048;1254;70551;-90
2023/01/25 04:06:04;;;;;;;34.30;18.20;;;;;;;5.16;62.72;101886.79;108292;1254;72615;-91
2023/01/25 04:08:33;;;;;;;35.70;18.50;;;;;;;5.13;62.55;101887.27;108105;1254;62065;-89
2023/01/25 04:11:05;;;;;;;41.30;18.40;;;;;;;5.01;62.61;101885.20;108272;1253;61629;-91
2023/01/25 04:13:35;;;;;;;33.90;17.80;;;;;;;4.90;63.09;101883.46;108152;1254;73591;-89
2023/01/25 04:16:05;;;;;;;35.70;18.90;;;;;;;4.94;62.59;101886.66;108051;1254;70457;-90
2023/01/25 04:18:55;;;;;;;31.50;15.40;;;;;;;4.97;62.12;101883.92;107977;1254;71953;-92
2023/01/25 04:21:24;;;;;;;27.10;14.90;;;;;;;5.26;61.81;101878.73;108001;1254;61904;-89
2023/01/25 04:23:52;;;;;;;28.90;14.80;;;;;;;5.53;60.99;101880.27;108005;1260;60332;-90
2023/01/25 04:26:21;;;;;;;39.30;18.30;;;;;;;5.88;60.49;101879.81;108063;1254;72650;-88
2023/01/25 04:28:54;;;;;;;38.40;19.50;;;;;;;5.76;58.37;101884.72;107922;1254;71388;-87
2023/01/25 04:31:24;;;;;;;29.80;16.20;;;;;;;5.66;57.80;101885.31;107941;1254;73860;-89
2023/01/25 04:33:56;;;;;;;27.00;14.00;;;;;;;5.85;57.74;101887.44;107970;1254;60764;-90
2023/01/25 04:36:25;;;;;;;34.60;16.80;;;;;;;5.42;58.84;101883.98;108246;1254;60432;-90
2023/01/25 04:38:53;;;;;;;32.40;15.50;;;;;;;5.56;59.20;101883.80;108073;1253;73606;-89
2023/01/25 04:41:25;;;;;;;33.30;16.50;;;;;;;5.98;58.28;101882.36;108056;1254;70583;-89
2023/01/25 04:43:54;;;;;;;32.30;16.80;;;;;;;5.82;58.44;101879.39;108087;1254;73566;-90
2023/01/25 04:46:22;;;;;;;30.70;15.30;;;;;;;5.72;58.46;101879.64;108269;1254;61364;-89
2023/01/25 04:48:51;;;;;;;32.00;16.90;;;;;;;5.28;58.16;101881.89;108336;1253;61581;-87
2023/01/25 04:51:21;;;;;;;30.00;15.20;;;;;;;5.04;58.51;101883.31;108185;1253;73493;-89
2023/01/25 04:53:50;;;;;;;29.00;14.10;;;;;;;5.18;58.51;101881.77;108106;1254;71047;-87
2023/01/25 04:56:18;;;;;;;32.20;15.30;;;;;;;5.28;58.66;101878.25;108060;1254;73855;-89
2023/01/25 04:58:51;;;;;;;31.40;16.20;;;;;;;5.49;58.87;101881.83;108239;1253;62124;-88
2023/01/25 05:01:21;;;;;;;35.90;17.20;;;;;;;5.72;58.67;101885.55;108164;1254;61344;-89
2023/01/25 05:03:50;;;;;;;30.70;15.30;;;;;;;5.85;58.53;101889.71;108248;1254;73545;-89
2023/01/25 05:06:39;;;;;;;32.00;16.00;;;;;;;5.64;59.22;101892.42;108011;1254;71535;-90
2023/01/25 05:09:09;;;;;;;41.00;18.10;;;;;;;5.92;58.65;101891.70;108083;1254;73962;-89
2023/01/25 05:11:40;;;;;;;30.10;15.60;;;;;;;5.89;59.01;101890.11;108063;1254;61206;-89
2023/01/25 05:14:13;;;;;;;34.00;14.90;;;;;;;6.11;58.92;101889.64;108123;1254;61401;-91
2023/01/25 05:16:43;;;;;;;35.80;17.50;;;;;;;5.91;59.08;101887.34;108241;1254;74505;-91
2023/01/25 05:19:12;;;;;;;28.70;15.30;;;;;;;5.83;59.13;101890.03;108081;1254;71431;-91
2023/01/25 05:22:01;;;;;;;29.70;14.70;;;;;;;5.90;58.76;101886.29;108136;1254;72600;-91
2023/01/25 05:24:35;;;;;;;26.20;13.70;;;;;;;5.89;58.78;101883.13;108074;1254;62198;-90
2023/01/25 05:27:07;;;;;;;30.90;15.30;;;;;;;5.84;59.37;101884.98;108265;1254;60341;-92
2023/01/25 05:29:56;;;;;;;31.80;14.70;;;;;;;5.92;59.03;101879.49;108134;1254;72552;-90
2023/01/25 05:32:35;;;;;;;29.60;14.40;;;;;;;5.99;58.61;101877.14;108343;1254;70390;-91
2023/01/25 05:35:03;;;;;;;29.30;15.30;;;;;;;5.97;58.03;101874.68;108583;1254;72340;-86
2023/01/25 10:02:36;;;;;;;41.10;20.50;;;;;;;4.26;73.62;101825.11;104712;1295;70759;-66
2023/01/25 10:05:26;;;;;;;43.30;21.20;;;;;;;4.41;72.03;101824.98;107172;1269;69249;-65
2023/01/25 10:07:57;;;;;;;42.40;19.50;;;;;;;4.43;71.57;101820.15;107183;1268;71797;-65
2023/01/25 10:10:34;;;;;;;36.90;18.50;;;;;;;4.60;69.38;101809.10;107112;1269;61356;-65
2023/01/25 10:13:04;;;;;;;45.80;21.20;;;;;;;4.54;67.29;101801.87;107071;1269;60857;-66
2023/01/25 10:15:37;;;;;;;41.60;19.20;;;;;;;4.58;66.28;101802.29;107077;1269;73282;-65
2023/01/25 10:18:18;;;;;;;42.10;20.40;;;;;;;4.71;65.87;101792.90;107212;1269;70594;-66
2023/01/25 10:21:16;;;;;;;37.50;20.20;;;;;;;4.74;65.24;101787.52;107273;1269;73739;-66
2023/01/25 10:24:21;;;;;;;41.20;21.40;;;;;;;4.81;65.22;101788.33;107450;1260;62059;-65
2023/01/25 10:26:55;;;;;;;39.50;20.00;;;;;;;4.74;66.13;101786.33;107526;1260;61354;-64
2023/01/25 10:29:27;;;;;;;43.30;19.80;;;;;;;4.94;65.81;101781.52;107561;1260;73927;-66
2023/01/25 10:31:57;;;;;;;31.40;16.80;;;;;;;5.09;65.64;101777.89;107497;1260;68867;-65
2023/01/25 10:34:26;;;;;;;32.00;17.60;;;;;;;5.08;65.41;101771.25;107460;1260;73815;-66
2023/01/25 10:36:54;;;;;;;33.40;18.50;;;;;;;5.14;65.09;101766.11;107418;1262;62236;-65
2023/01/25 10:39:21;;;;;;;49.20;21.00;;;;;;;5.47;63.65;101768.55;107450;1261;59500;-66
2023/01/25 10:41:51;;;;;;;43.80;20.50;;;;;;;5.42;63.69;101765.02;107416;1262;74777;-66
2023/01/25 10:44:21;;;;;;;31.40;16.40;;;;;;;5.50;63.51;101762.48;107486;1262;71261;-65
2023/01/25 10:46:51;;;;;;;42.90;20.60;;;;;;;5.52;62.90;101759.73;107465;1262;73361;-65
2023/01/25 10:49:23;;;;;;;38.20;20.80;;;;;;;5.47;62.58;101754.09;107513;1262;60614;-67
2023/01/25 10:51:50;;;;;;;37.60;19.40;;;;;;;5.65;61.97;101754.77;107373;1262;61396;-66
2023/01/25 10:54:17;;;;;;;38.50;20.50;;;;;;;5.98;61.26;101750.92;107436;1262;73427;-65
2023/01/25 10:56:43;;;;;;;40.80;21.30;;;;;;;5.67;62.06;101747.14;107408;1262;71475;-65
2023/01/25 10:59:24;;;;;;;36.00;18.70;;;;;;;5.74;62.05;101745.11;107397;1262;72233;-66
2023/01/25 11:01:51;;;;;;;36.60;19.10;;;;;;;5.92;60.51;101743.69;107392;1262;61469;-65
2023/01/25 11:04:23;;;;;;;33.20;18.20;;;;;;;6.00;59.96;101744.66;107440;1262;59554;-65
2023/01/25 11:06:51;;;;;;;37.50;20.60;;;;;;;5.83;59.43;101745.70;107420;1266;73933;-66
2023/01/25 11:09:21;;;;;;;40.90;20.30;;;;;;;5.68;59.07;101738.80;107409;1260;70739;-65
2023/01/25 11:11:58;;;;;;;38.90;19.90;;;;;;;5.62;58.75;101741.35;107451;1260;72252;-65
2023/01/25 11:14:27;;;;;;;39.20;20.30;;;;;;;5.56;58.76;101731.20;107816;1256;62027;-65
2023/01/25 11:16:55;;;;;;;42.60;21.40;;;;;;;5.52;59.30;101727.48;107827;1256;61474;-65
2023/01/25 11:19:38;;;;;;;39.00;21.90;;;;;;;5.49;59.60;101727.27;107808;1256;74141;-63
2023/01/25 11:22:27;;;;;;;42.30;20.50;;;;;;;5.70;59.55;101733.57;107832;1256;71451;-63
2023/01/25 11:24:54;;;;;;;47.00;22.50;;;;;;;5.77;59.58;101727.02;107840;1256;71446;-63
2023/01/25 11:27:25;;;;;;;51.00;25.70;;;;;;;5.60;60.22;101725.64;107780;1256;62686;-65
2023/01/25 11:30:05;;;;;;;52.40;25.20;;;;;;;5.64;60.12;101723.59;107863;1256;60580;-65
2023/01/25 11:32:32;;;;;;;53.20;25.60;;;;;;;5.35;61.07;101720.19;107796;1256;73828;-63
2023/01/25 11:34:59;;;;;;;52.10;24.50;;;;;;;5.14;61.16;101721.00;107865;1256;71040;-63
2023/01/25 11:38:04;;;;;;;53.30;24.50;;;;;;;5.44;60.31;101719.40;107803;1257;73873;-64
2023/01/25 11:40:37;;;;;;;51.10;25.10;;;;;;;5.38;60.90;101713.07;107771;1256;60062;-63
2023/01/25 11:43:08;;;;;;;56.50;27.00;;;;;;;5.03;62.20;101708.54;107599;1256;60664;-65
2023/01/25 11:45:47;;;;;;;;;;;;;;;4.98;62.76;101707.08;107792;1256;70948;-64
2023/01/25 11:48:29;;;;;;;54.00;25.20;;;;;;;5.10;62.61;101704.77;107764;1256;68702;-65
2023/01/25 11:51:02;;;;;;;50.10;26.50;;;;;;;5.06;62.80;101700.73;107731;1256;73725;-65
2023/01/25 11:54:06;;;;;;;49.40;25.40;;;;;;;5.22;62.50;101701.78;107727;1256;62258;-65
2023/01/25 11:56:41;;;;;;;49.90;24.70;;;;;;;5.29;62.11;101699.92;107812;1256;59699;-65
2023/01/25 11:59:34;;;;;;;54.50;27.30;;;;;;;5.36;62.24;101696.33;107767;1260;72715;-66
2023/01/25 12:02:38;;;;;;;55.90;28.10;;;;;;;5.35;61.90;101693.52;107673;1256;72033;-66
2023/01/25 12:05:17;;;;;;;52.70;26.80;;;;;;;5.53;61.22;101696.32;107645;1256;71738;-66
2023/01/25 12:08:26;;;;;;;49.40;23.70;;;;;;;5.31;62.01;101696.80;107684;1256;60288;-65
2023/01/25 12:11:08;;;;;;;58.60;27.40;;;;;;;5.26;62.06;101694.14;107759;1257;61324;-65
2023/01/25 12:13:51;;;;;;;53.30;27.80;;;;;;;5.16;61.51;101692.65;107728;1257;74255;-66
2023/01/25 12:16:36;;;;;;;55.50;28.00;;;;;;;5.22;61.58;101691.84;107679;1257;71601;-66
2023/01/25 12:19:41;;;;;;;55.20;28.60;;;;;;;5.28;61.63;101693.13;107715;1257;73107;-66
2023/01/25 12:22:13;;;;;;;57.30;27.90;;;;;;;5.31;61.17;101691.77;107647;1257;61342;-65
2023/01/25 12:24:55;;;;;;;48.80;24.20;;;;;;;5.51;60.56;101691.42;107701;1257;61558;-65
2023/01/25 12:27:37;;;;;;;52.30;27.00;;;;;;;5.37;61.47;101690.77;107703;1257;72155;-66
2023/01/25 12:30:26;;;;;;;61.40;30.60;;;;;;;5.13;61.57;101690.70;107729;1257;71451;-65
2023/01/25 12:33:02;;;;;;;61.60;31.40;;;;;;;5.13;61.74;101691.91;107744;1257;72195;-65
2023/01/25 12:35:43;;;;;;;60.60;29.90;;;;;;;5.18;59.84;101692.67;107761;1257;61593;-65
2023/01/25 12:38:17;;;;;;;69.10;33.40;;;;;;;4.94;60.67;101683.88;107721;1257;59810;-65
2023/01/25 12:40:53;;;;;;;59.50;29.40;;;;;;;5.10;60.89;101684.40;107745;1257;71879;-65
2023/01/25 12:43:24;;;;;;;60.50;28.40;;;;;;;5.80;59.87;101681.72;107710;1257;71023;-66
2023/01/25 12:45:52;;;;;;;66.40;31.60;;;;;;;5.80;59.40;101679.45;107549;1258;74202;-65
2023/01/25 12:48:21;;;;;;;65.00;30.30;;;;;;;5.54;60.31;101688.66;107730;1259;60675;-66
2023/01/25 12:50:55;;;;;;;66.20;32.00;;;;;;;5.87;59.63;101685.61;107746;1257;60833;-65
2023/01/25 12:53:23;;;;;;;69.30;31.20;;;;;;;5.70;59.53;101686.00;107737;1257;74354;-66
2023/01/25 12:55:50;;;;;;;66.90;32.70;;;;;;;5.59;60.24;101689.73;107721;1257;69365;-66
2023/01/25 12:58:27;;;;;;;83.10;34.70;;;;;;;5.61;60.08;101685.58;107605;1257;73770;-65
2023/01/25 13:01:10;;;;;;;71.60;32.80;;;;;;;5.73;59.39;101678.35;107708;1257;62201;-65
2023/01/25 13:03:55;;;;;;;71.00;34.10;;;;;;;5.55;59.58;101677.52;107686;1257;60305;-66
2023/01/25 13:06:46;;;;;;;73.90;35.10;;;;;;;5.54;59.54;101674.90;107704;1257;72643;-65
2023/01/25 13:10:02;;;;;;;73.10;34.80;;;;;;;5.47;59.09;101678.84;107730;1256;69243;-66
2023/01/25 13:12:50;;;;;;;67.90;31.50;;;;;;;5.71;58.07;101675.39;107255;1265;72952;-65
2023/01/25 13:15:39;;;;;;;92.40;41.20;;;;;;;5.67;58.29;101677.44;107608;1256;60976;-65
2023/01/25 13:18:27;;;;;;;76.20;35.70;;;;;;;5.87;58.42;101673.06;107856;1256;59877;-66
2023/01/25 13:20:56;;;;;;;68.00;30.80;;;;;;;6.25;57.11;101665.65;107863;1258;71952;-66
2023/01/25 13:23:34;;;;;;;81.00;38.50;;;;;;;6.23;57.13;101661.80;107866;1256;71586;-66
2023/01/25 13:26:20;;;;;;;91.90;38.40;;;;;;;6.05;57.31;101666.55;107832;1256;73747;-65
2023/01/25 13:28:48;;;;;;;71.10;34.40;;;;;;;5.86;57.39;101659.98;107820;1256;61448;-64
2023/01/25 13:31:39;;;;;;;85.00;39.50;;;;;;;5.78;57.20;101656.77;107855;1256;61520;-65
2023/01/25 13:34:43;;;;;;;85.10;36.90;;;;;;;5.62;57.60;101656.83;107849;1256;73395;-66
2023/01/25 13:37:18;;;;;;;72.70;36.00;;;;;;;5.86;56.95;101654.05;107717;1256;71253;-65
2023/01/25 13:39:58;;;;;;;81.60;37.70;;;;;;;5.91;57.41;101648.52;107669;1257;73731;-65
2023/01/25 13:42:33;;;;;;;91.60;39.50;;;;;;;5.77;57.87;101647.19;107799;1256;62262;-66
2023/01/25 13:45:13;;;;;;;73.00;36.10;;;;;;;5.52;58.36;101649.27;107855;1256;61419;-65
2023/01/25 13:47:41;;;;;;;72.60;34.60;;;;;;;5.37;58.57;101649.83;107809;1256;73189;-65
2023/01/25 13:50:17;;;;;;;71.70;36.60;;;;;;;5.44;59.12;101644.85;107604;1256;71114;-66
2023/01/25 18:00:58;;;;;;;112.10;54.70;;;;;;;1.14;89.15;101557.30;105536;1283;614094;-64
2023/01/25 18:03:40;;;;;;;118.00;52.90;;;;;;;2.81;83.04;101554.88;107500;1262;132286;-65
2023/01/25 18:06:10;;;;;;;100.80;46.70;;;;;;;2.95;81.54;101556.33;107749;1257;61421;-64
2023/01/25 18:08:41;;;;;;;91.90;43.50;;;;;;;2.88;80.93;101558.83;107711;1257;73247;-65
2023/01/25 18:11:09;;;;;;;103.60;46.70;;;;;;;2.99;80.48;101560.39;107624;1263;69688;-65
2023/01/25 18:13:49;;;;;;;107.90;49.40;;;;;;;3.09;79.64;101560.75;107641;1260;72850;-65
2023/01/25 18:16:16;;;;;;;119.80;52.70;;;;;;;3.20;78.65;101560.56;107633;1259;61758;-66
2023/01/25 18:18:45;;;;;;;110.10;50.20;;;;;;;3.27;78.00;101561.20;107644;1260;61408;-64
2023/01/25 18:21:23;;;;;;;101.90;45.30;;;;;;;3.39;76.77;101559.30;107600;1260;72251;-64
2023/01/25 18:23:51;;;;;;;108.70;49.60;;;;;;;3.51;76.04;101561.23;107704;1263;71414;-64
2023/01/25 18:26:25;;;;;;;104.50;47.00;;;;;;;3.55;75.61;101563.02;107709;1263;73715;-65
2023/01/25 18:29:45;;;;;;;113.60;51.70;;;;;;;3.60;74.80;101563.09;107681;1261;62022;-65
2023/01/25 18:32:12;;;;;;;106.40;48.50;;;;;;;3.93;73.32;101567.90;107622;1260;61390;-66
2023/01/25 18:34:39;;;;;;;126.50;54.40;;;;;;;3.84;73.04;101567.26;107640;1260;73128;-66
2023/01/25 18:37:16;;;;;;;119.40;52.00;;;;;;;3.78;73.13;101567.17;107632;1261;71582;-66
2023/01/25 18:39:44;;;;;;;119.30;52.00;;;;;;;3.54;73.49;101566.14;107699;1260;73652;-66
2023/01/25 18:42:11;;;;;;;110.70;49.20;;;;;;;3.50;73.55;101560.85;107510;1260;61439;-66
2023/01/25 18:44:38;;;;;;;117.30;50.30;;;;;;;3.47;73.49;101558.73;107746;1263;60457;-66
2023/01/25 18:47:05;;;;;;;137.60;60.90;;;;;;;3.50;72.77;101561.55;107686;1260;74307;-65
2023/01/25 18:49:32;;;;;;;113.60;50.50;;;;;;;3.56;72.04;101560.08;107733;1262;70143;-66
2023/01/25 18:51:58;;;;;;;106.50;49.70;;;;;;;3.59;71.03;101555.42;107634;1260;72492;-66
2023/01/25 18:54:37;;;;;;;116.80;49.70;;;;;;;3.40;70.59;101553.95;107571;1265;61291;-65
2023/01/25 18:57:05;;;;;;;115.90;51.60;;;;;;;3.25;70.92;101556.65;107577;1260;61260;-66
2023/01/25 18:59:32;;;;;;;110.30;48.80;;;;;;;3.41;71.05;101554.48;107665;1260;73538;-65
2023/01/25 19:01:59;;;;;;;113.80;48.20;;;;;;;3.28;71.31;101553.41;107612;1263;70251;-63
2023/01/25 19:04:26;;;;;;;113.30;50.70;;;;;;;3.34;71.01;101552.11;107677;1260;72574;-65
2023/01/25 19:06:56;;;;;;;111.40;48.20;;;;;;;3.26;70.39;101551.30;107605;1260;62498;-64
2023/01/25 19:09:24;;;;;;;119.60;51.30;;;;;;;3.12;70.38;101553.33;107681;1260;60851;-65
2023/01/25 19:11:50;;;;;;;107.00;49.30;;;;;;;3.34;69.61;101552.63;107748;1260;72663;-67
2023/01/25 19:14:18;;;;;;;120.80;52.70;;;;;;;3.33;69.39;101554.17;107954;1257;71546;-65
2023/01/25 19:16:44;;;;;;;98.40;44.60;;;;;;;3.04;69.99;101553.19;107999;1257;72102;-65
2023/01/25 19:19:11;;;;;;;114.90;49.10;;;;;;;3.04;70.72;101551.28;107979;1258;61254;-64
2023/01/25 19:21:38;;;;;;;107.60;46.20;;;;;;;3.17;70.27;101547.16;107972;1257;61421;-65
2023/01/25 19:24:08;;;;;;;108.50;49.00;;;;;;;3.23;69.59;101550.21;107982;1255;73058;-66
2023/01/25 19:26:35;;;;;;;110.10;47.90;;;;;;;3.12;69.19;101550.89;108017;1257;70423;-65
2023/01/25 19:29:02;;;;;;;117.50;49.50;;;;;;;3.15;69.16;101550.27;108034;1259;71950;-65
2023/01/25 19:31:31;;;;;;;107.70;47.90;;;;;;;3.06;68.99;101548.73;107994;1257;61926;-65
2023/01/25 19:33:59;;;;;;;106.40;47.70;;;;;;;3.12;68.62;101550.02;108034;1256;61544;-65
2023/01/25 19:36:28;;;;;;;105.90;47.50;;;;;;;3.10;68.61;101545.32;108100;1257;73971;-64
2023/01/25 19:38:56;;;;;;;94.00;43.20;;;;;;;3.02;69.55;101540.67;108047;1259;70826;-65
2023/01/25 19:41:25;;;;;;;126.60;55.70;;;;;;;3.12;70.36;101539.80;108006;1259;73785;-65
2023/01/25 19:43:53;;;;;;;97.20;45.10;;;;;;;3.00;71.07;101534.23;107972;1256;61149;-64
2023/01/25 19:46:22;;;;;;;97.80;45.00;;;;;;;3.25;70.42;101532.70;108011;1258;61489;-66
2023/01/25 19:48:52;;;;;;;101.90;44.20;;;;;;;3.22;70.41;101538.02;107962;1257;73910;-64
2023/01/25 19:51:41;;;;;;;117.90;49.00;;;;;;;3.14;70.50;101532.17;107886;1257;69001;-63
2023/01/25 19:54:15;;;;;;;102.20;42.70;;;;;;;3.11;70.64;101528.16;107996;1257;73520;-65
2023/01/25 19:56:44;;;;;;;99.70;45.70;;;;;;;3.12;69.80;101526.42;108022;1259;61018;-65
2023/01/25 19:59:16;;;;;;;102.40;46.10;;;;;;;3.34;68.43;101525.55;108043;1256;59496;-65
2023/01/25 20:01:44;;;;;;;98.90;39.90;;;;;;;3.26;68.24;101527.34;108062;1257;73944;-65
2023/01/25 20:04:12;;;;;;;112.70;46.10;;;;;;;3.13;67.98;101525.06;108027;1257;71576;-65
2023/01/25 20:06:39;;;;;;;97.10;45.70;;;;;;;3.24;67.98;101522.95;107970;1260;73985;-64
2023/01/25 20:09:06;;;;;;;106.90;45.10;;;;;;;3.38;67.74;101524.39;107975;1257;62306;-65
2023/01/25 20:11:33;;;;;;;92.90;40.70;;;;;;;3.56;67.13;101522.74;108017;1257;59429;-62
2023/01/25 20:14:02;;;;;;;93.30;43.80;;;;;;;3.39;66.88;101518.48;108027;1256;74026;-65